Aviation Digital Data Service (ADDS)

Output produced by METARs form (1031 UTC 21 October 2019)
found at http://aviationweather.gov/metar/data/
 
KRYY 211026Z AUTO 00000KT 2SM BR BKN001 13/13 A2997 RMK AO2 VIS 1V5 TSNO $
KRYY 210845Z 2109/2206 00000KT 2SM BR BKN005 
     TEMPO 2109/2112 1/4SM FG OVC002 
     FM211200 13004KT 6SM BR BKN009 
     FM211500 15008KT P6SM SCT020 SCT040 
     FM211700 16008KT P6SM SCT040 BKN090 
     FM220200 15006KT P6SM -SHRA SCT010 OVC020 
     PROB30 2202/2206 6SM -TSRA BKN050CB
       
KPUJ 211015Z AUTO 00000KT 10SM CLR 14/14 A2995 RMK AO2
KCNI 211010Z AUTO 00000KT 1/2SM FG OVC002 11/11 A2999 RMK AO2
KPDK 211022Z AUTO 00000KT 2SM BR CLR 12/12 A2996 RMK AO2 VIS 1V5 T01170117
KPDK 210844Z 2109/2206 00000KT 2SM BR SCT005 
     TEMPO 2109/2112 1/2SM FG OVC002 
     FM211200 VRB03KT 6SM BR BKN009 
     FM211500 13006KT P6SM SCT020 SCT040 
     FM211700 15006KT P6SM SCT040 BKN090 
     FM220200 15005KT P6SM -SHRA SCT010 OVC020 
     PROB30 2202/2206 6SM -TSRA BKN050CB
       
KRMG 211024Z AUTO 00000KT 1/4SM FG VV002 14/13 A2995 RMK AO2 T01440133
KATL 210952Z 00000KT 10SM FEW180 FEW250 15/13 A2996 RMK AO2 SLP141 T01500133
KATL 210952Z 2110/2212 13003KT P6SM SCT180 SCT250 
     TEMPO 2110/2112 4SM BR SCT002 
     FM211200 11004KT P6SM SCT009 SCT250 
     FM211500 13008KT P6SM SCT020 SCT040 
     FM211700 16008KT P6SM SCT040 BKN090 
     FM220200 15007KT P6SM -SHRA SCT010 OVC020 
     PROB30 2202/2208 6SM TSRA SCT005 OVC010CB
       
KFFC 211003Z AUTO 00000KT 1/2SM FG VV002 13/13 A2997 RMK AO2 T01330128
KGAD 210956Z AUTO 00000KT 1/4SM FG BKN002 14/14 A2993 RMK AO2 SLP138 T01390139
KCHA 210953Z 00000KT 1/4SM R02/1400V1800FT FG VV002 14/14 A2995 RMK AO2 SLP138 T01440144 $
KCHA 210657Z 2107/2206 00000KT 1/4SM FG VV002 
     TEMPO 2110/2114 1SM BR OVC003 
     FM211400 00000KT 3SM BR SCT005 
     FM211500 17008KT P6SM SCT040 BKN150 
     FM211700 17010G20KT P6SM BKN050 
     FM212300 18008KT 4SM -SHRA BR BKN025
       
KDNN 211015Z AUTO 00000KT 5SM BR SCT001 SCT019 SCT060 12/11 A2997 RMK AO2
KAHN 211026Z AUTO 00000KT 1/2SM FG VV002 13/12 A2998 RMK AO2 T01280122
KAHN 210847Z 2109/2206 VRB03KT P6SM FEW250 
     TEMPO 2109/2112 1SM BR SCT002 
     FM211400 11005KT P6SM SCT009 BKN015 
     FM211800 13006KT P6SM BKN035 BKN090 
     FM220300 13005KT P6SM -SHRA SCT005 OVC030 
     PROB30 2203/2206 5SM -TSRA BKN050CB
       
KLZU 211018Z AUTO 00000KT 4SM BR CLR 12/12 A2998 RMK AO2